Time;durP1;ratioP1;P1;durP2;ratioP2;P2;SDS_P1;SDS_P2;PMS_P1;PMS_P2;Temp;Humidity;BMP_temperature;BMP_pressure;BME280_temperature;BME280_humidity;BME280_pressure;Samples;Min_cycle;Max_cycle;Signal;HPM_P1;HPM_P2
2021/09/01 00:01:11;;;;;;;;;;;14.30;99.90;;;;;;5117668;28;19923;-83
2021/09/01 00:03:39;;;;;;;;;;;14.30;99.90;;;;;;5117442;28;20268;-82
2021/09/01 00:06:10;;;;;;;;;;;14.30;99.90;;;;;;5117687;28;20263;-82
2021/09/01 00:08:37;;;;;;;;;;;14.40;99.90;;;;;;5117558;28;19985;-81
2021/09/01 00:11:06;;;;;;;;;;;14.40;99.90;;;;;;5117890;28;19924;-82
2021/09/01 00:13:34;;;;;;;;;;;14.40;99.90;;;;;;5117445;28;19930;-82
2021/09/01 00:16:03;;;;;;;;;;;14.40;99.90;;;;;;5117659;28;19954;-82
2021/09/01 00:18:31;;;;;;;;;;;14.30;99.90;;;;;;5117584;28;20259;-81
2021/09/01 00:20:59;;;;;;;;;;;14.30;99.90;;;;;;5117490;28;19939;-82
2021/09/01 00:23:27;;;;;;;;;;;14.20;99.90;;;;;;5117182;28;19923;-82
2021/09/01 00:25:55;;;;;;;;;;;14.20;99.90;;;;;;5117228;28;19934;-82
2021/09/01 00:28:23;;;;;;;;;;;14.10;99.90;;;;;;5117397;28;19923;-82
2021/09/01 00:30:51;;;;;;;;;;;14.10;99.90;;;;;;5116904;28;19935;-82
2021/09/01 00:33:24;;;;;;;;;;;14.00;99.90;;;;;;5117086;28;19927;-82
2021/09/01 00:35:52;;;;;;;;;;;14.00;99.90;;;;;;5116708;28;19923;-82
2021/09/01 00:38:20;;;;;;;;;;;14.00;99.90;;;;;;5116981;28;19924;-82
2021/09/01 00:40:48;;;;;;;;;;;14.00;99.90;;;;;;5117016;28;19923;-81
2021/09/01 00:43:16;;;;;;;;;;;13.90;99.90;;;;;;5117178;28;19928;-82
2021/09/01 00:45:45;;;;;;;;;;;13.90;99.90;;;;;;5116826;28;19924;-82
2021/09/01 00:48:13;;;;;;;;;;;13.90;99.90;;;;;;5116837;28;20262;-82
2021/09/01 00:50:41;;;;;;;;;;;13.90;99.90;;;;;;5117241;28;19924;-82
2021/09/01 00:53:09;;;;;;;;;;;13.90;99.90;;;;;;5116861;28;20371;-82
2021/09/01 00:55:38;;;;;;;;;;;13.90;99.90;;;;;;5116560;28;19938;-82
2021/09/01 00:58:06;;;;;;;;;;;13.90;99.90;;;;;;5116695;28;19923;-82
2021/09/01 01:00:38;;;;;;;;;;;13.90;99.90;;;;;;5116475;28;19923;-82
2021/09/01 01:03:07;;;;;;;;;;;13.90;99.90;;;;;;5116804;28;19924;-82
2021/09/01 01:05:35;;;;;;;;;;;13.80;99.90;;;;;;5116511;28;19923;-82
2021/09/01 01:08:05;;;;;;;;;;;13.80;99.90;;;;;;5116369;28;19924;-82
2021/09/01 01:10:33;;;;;;;;;;;13.80;99.90;;;;;;5116266;28;19934;-82
2021/09/01 01:13:00;;;;;;;;;;;13.80;99.90;;;;;;5116467;28;19928;-82
2021/09/01 01:15:28;;;;;;;;;;;13.80;99.90;;;;;;5116147;28;19931;-82
2021/09/01 01:17:56;;;;;;;;;;;13.70;99.90;;;;;;5116288;28;19924;-82
2021/09/01 01:20:24;;;;;;;;;;;13.70;99.90;;;;;;5116176;28;19924;-82
2021/09/01 01:22:53;;;;;;;;;;;13.70;99.90;;;;;;5116324;28;19934;-82
2021/09/01 01:25:35;;;;;;;;;;;13.70;99.90;;;;;;5116043;28;19924;-82
2021/09/01 01:28:06;;;;;;;;;;;13.60;99.90;;;;;;5115996;28;20336;-82
2021/09/01 01:30:33;;;;;;;;;;;13.60;99.90;;;;;;5115634;28;19923;-83
2021/09/01 01:33:00;;;;;;;;;;;13.60;99.90;;;;;;5116231;28;19928;-82
2021/09/01 01:35:29;;;;;;;;;;;13.60;99.90;;;;;;5115901;28;19934;-82
2021/09/01 01:37:56;;;;;;;;;;;13.50;99.90;;;;;;5116075;28;19924;-82
2021/09/01 01:40:26;;;;;;;;;;;13.50;99.90;;;;;;5115712;28;19923;-82
2021/09/01 01:43:07;;;;;;;;;;;13.50;99.90;;;;;;5115926;28;19924;-82
2021/09/01 01:45:36;;;;;;;;;;;13.40;99.90;;;;;;5114439;28;19966;-82
2021/09/01 01:48:04;;;;;;;;;;;13.40;99.90;;;;;;5116001;28;19935;-82
2021/09/01 01:50:32;;;;;;;;;;;13.40;99.90;;;;;;5115725;28;20361;-84
2021/09/01 01:53:01;;;;;;;;;;;13.40;99.90;;;;;;5115689;28;19928;-81
2021/09/01 01:55:29;;;;;;;;;;;13.30;99.90;;;;;;5115687;28;19935;-82
2021/09/01 01:57:58;;;;;;;;;;;13.30;99.90;;;;;;5115494;28;19923;-82
2021/09/01 02:00:25;;;;;;;;;;;13.20;99.90;;;;;;5115495;28;19923;-85
2021/09/01 02:02:52;;;;;;;;;;;13.20;99.90;;;;;;5115596;28;19924;-82
2021/09/01 02:05:19;;;;;;;;;;;13.10;99.90;;;;;;5115680;28;19927;-84
2021/09/01 02:07:46;;;;;;;;;;;13.10;99.90;;;;;;5114861;28;19934;-83
2021/09/01 02:10:13;;;;;;;;;;;13.00;99.90;;;;;;5115292;28;19924;-82
2021/09/01 02:12:40;;;;;;;;;;;13.00;99.90;;;;;;5115478;28;19923;-82
2021/09/01 02:15:09;;;;;;;;;;;12.90;99.90;;;;;;5115383;28;19923;-82
2021/09/01 02:17:36;;;;;;;;;;;12.90;99.90;;;;;;5115282;28;20332;-85
2021/09/01 02:20:03;;;;;;;;;;;12.80;99.90;;;;;;5115353;28;19924;-85
2021/09/01 02:22:30;;;;;;;;;;;12.80;99.90;;;;;;5115400;28;19934;-85
2021/09/01 02:24:57;;;;;;;;;;;12.80;99.90;;;;;;5115356;28;19950;-85
2021/09/01 02:27:24;;;;;;;;;;;12.80;99.90;;;;;;5115340;28;19924;-85
2021/09/01 02:29:50;;;;;;;;;;;12.80;99.90;;;;;;5115390;28;19923;-85
2021/09/01 02:32:19;;;;;;;;;;;12.80;99.90;;;;;;5115499;28;19930;-85
2021/09/01 02:34:45;;;;;;;;;;;12.80;99.90;;;;;;5115393;28;19934;-85
2021/09/01 02:37:12;;;;;;;;;;;12.90;99.90;;;;;;5115383;28;20258;-83
2021/09/01 02:39:39;;;;;;;;;;;12.90;99.90;;;;;;5115194;28;20422;-82
2021/09/01 02:42:06;;;;;;;;;;;12.90;99.90;;;;;;5115116;28;19924;-82
2021/09/01 02:44:33;;;;;;;;;;;12.90;99.90;;;;;;5115421;28;19923;-83
2021/09/01 02:47:00;;;;;;;;;;;12.90;99.90;;;;;;5115211;28;19934;-82
2021/09/01 02:49:28;;;;;;;;;;;13.00;99.90;;;;;;5115145;28;19930;-82
2021/09/01 02:51:55;;;;;;;;;;;13.00;99.90;;;;;;5115136;28;20036;-84
2021/09/01 02:54:22;;;;;;;;;;;13.10;99.90;;;;;;5115070;28;20362;-83
2021/09/01 02:56:48;;;;;;;;;;;13.10;99.90;;;;;;5115097;28;19923;-83
2021/09/01 02:59:15;;;;;;;;;;;13.10;99.90;;;;;;5119089;28;19931;-83
2021/09/01 03:01:42;;;;;;;;;;;13.20;99.90;;;;;;5118793;28;20370;-83
2021/09/01 03:04:09;;;;;;;;;;;13.20;99.90;;;;;;5118812;28;19934;-83
2021/09/01 03:06:37;;;;;;;;;;;13.20;99.90;;;;;;5118883;28;19934;-83
2021/09/01 03:09:04;;;;;;;;;;;13.20;99.90;;;;;;5118649;28;19924;-83
2021/09/01 03:11:31;;;;;;;;;;;13.20;99.90;;;;;;5118590;28;19923;-82
2021/09/01 03:13:57;;;;;;;;;;;13.20;99.90;;;;;;5118859;28;19923;-83
2021/09/01 03:16:24;;;;;;;;;;;13.20;99.90;;;;;;5118528;28;20347;-83
2021/09/01 03:18:51;;;;;;;;;;;13.20;99.90;;;;;;5118555;28;19938;-82
2021/09/01 03:21:18;;;;;;;;;;;13.20;99.90;;;;;;5118477;28;19924;-82
2021/09/01 03:23:46;;;;;;;;;;;13.20;99.90;;;;;;5118271;28;20275;-82
2021/09/01 03:26:13;;;;;;;;;;;13.30;99.90;;;;;;5118611;28;19935;-83
2021/09/01 03:28:40;;;;;;;;;;;13.30;99.90;;;;;;5118564;28;20277;-82
2021/09/01 03:31:06;;;;;;;;;;;13.30;99.90;;;;;;5118066;28;19924;-83
2021/09/01 03:33:33;;;;;;;;;;;13.30;99.90;;;;;;5118351;28;19924;-83
2021/09/01 03:36:00;;;;;;;;;;;13.30;99.90;;;;;;5118174;28;19947;-83
2021/09/01 03:38:27;;;;;;;;;;;13.40;99.90;;;;;;5118078;28;19970;-83
2021/09/01 03:40:55;;;;;;;;;;;13.40;99.90;;;;;;5118067;28;20352;-83
2021/09/01 03:43:22;;;;;;;;;;;13.40;99.90;;;;;;5118036;28;19934;-83
2021/09/01 03:45:49;;;;;;;;;;;13.40;99.90;;;;;;5118138;28;19934;-83
2021/09/01 03:48:16;;;;;;;;;;;13.40;99.90;;;;;;5118054;28;20263;-82
2021/09/01 03:50:42;;;;;;;;;;;13.50;99.90;;;;;;5117898;28;19934;-83
2021/09/01 03:53:09;;;;;;;;;;;13.40;99.90;;;;;;5117782;28;19924;-83
2021/09/01 03:55:36;;;;;;;;;;;13.50;99.90;;;;;;5117969;28;19924;-82
2021/09/01 03:58:04;;;;;;;;;;;13.50;99.90;;;;;;5117730;28;20339;-83
2021/09/01 04:00:31;;;;;;;;;;;13.50;99.90;;;;;;5117869;28;19935;-83
2021/09/01 04:02:58;;;;;;;;;;;13.50;99.90;;;;;;5117749;28;19923;-82
2021/09/01 04:05:25;;;;;;;;;;;13.60;99.90;;;;;;5117629;28;20274;-82
2021/09/01 04:07:52;;;;;;;;;;;13.60;99.90;;;;;;5117903;28;19930;-82
2021/09/01 04:10:18;;;;;;;;;;;13.60;99.90;;;;;;5116867;28;19936;-82
2021/09/01 04:12:45;;;;;;;;;;;13.60;99.90;;;;;;5117611;28;19934;-81
2021/09/01 04:15:14;;;;;;;;;;;13.60;99.90;;;;;;5117312;28;20360;-82
2021/09/01 04:17:40;;;;;;;;;;;13.60;99.90;;;;;;5117432;28;19935;-82
2021/09/01 04:20:08;;;;;;;;;;;13.70;99.90;;;;;;5117317;28;19923;-82
2021/09/01 04:22:35;;;;;;;;;;;13.70;99.90;;;;;;5117550;28;19923;-82
2021/09/01 04:25:02;;;;;;;;;;;13.70;99.90;;;;;;5117374;28;19934;-82
2021/09/01 04:27:28;;;;;;;;;;;13.70;99.90;;;;;;5117336;28;19923;-82
2021/09/01 04:29:55;;;;;;;;;;;13.70;99.90;;;;;;5117054;28;19923;-82
2021/09/01 04:32:23;;;;;;;;;;;13.60;99.90;;;;;;5117173;28;19924;-82
2021/09/01 04:34:50;;;;;;;;;;;13.60;99.90;;;;;;5116950;28;20259;-82
2021/09/01 04:37:17;;;;;;;;;;;13.60;99.90;;;;;;5117108;28;19924;-82
2021/09/01 04:39:44;;;;;;;;;;;13.60;99.90;;;;;;5117194;28;19934;-82
2021/09/01 04:42:11;;;;;;;;;;;13.60;99.90;;;;;;5117049;28;19928;-82
2021/09/01 04:44:37;;;;;;;;;;;13.60;99.90;;;;;;5116861;28;20343;-82
2021/09/01 04:47:04;;;;;;;;;;;13.60;99.90;;;;;;5116812;28;19924;-82
2021/09/01 04:49:32;;;;;;;;;;;13.50;99.90;;;;;;5116909;28;19928;-82
2021/09/01 04:51:59;;;;;;;;;;;13.50;99.90;;;;;;5116848;28;19935;-83
2021/09/01 04:54:29;;;;;;;;;;;13.50;99.90;;;;;;5116701;28;19924;-83
2021/09/01 04:56:55;;;;;;;;;;;13.50;99.90;;;;;;5116652;28;19970;-83
2021/09/01 04:59:22;;;;;;;;;;;13.60;99.90;;;;;;5116610;28;20358;-83
2021/09/01 05:01:49;;;;;;;;;;;13.60;99.90;;;;;;5116498;28;19924;-82
2021/09/01 05:04:16;;;;;;;;;;;13.60;99.90;;;;;;5116388;28;19928;-83
2021/09/01 05:06:44;;;;;;;;;;;13.60;99.90;;;;;;5116527;28;20279;-83
2021/09/01 05:09:11;;;;;;;;;;;13.60;99.90;;;;;;5116503;28;19938;-83
2021/09/01 05:11:38;;;;;;;;;;;13.60;99.90;;;;;;5116478;28;19965;-83
2021/09/01 05:14:05;;;;;;;;;;;13.60;99.90;;;;;;5116348;28;19977;-82
2021/09/01 05:16:31;;;;;;;;;;;13.60;99.90;;;;;;5116231;28;20283;-83
2021/09/01 05:18:58;;;;;;;;;;;13.70;99.90;;;;;;5116129;28;19924;-83
2021/09/01 05:21:26;;;;;;;;;;;13.70;99.90;;;;;;5116081;28;19923;-83
2021/09/01 05:23:54;;;;;;;;;;;13.70;99.90;;;;;;5116310;28;19924;-83
2021/09/01 05:26:21;;;;;;;;;;;13.70;99.90;;;;;;5116218;28;19927;-83
2021/09/01 05:28:48;;;;;;;;;;;13.70;99.90;;;;;;5116115;28;19924;-82
2021/09/01 05:31:17;;;;;;;;;;;13.70;99.90;;;;;;5115719;28;19924;-82
2021/09/01 05:33:44;;;;;;;;;;;13.70;99.90;;;;;;5116214;28;20314;-82
2021/09/01 05:36:11;;;;;;;;;;;13.70;99.90;;;;;;5115936;28;19924;-83
2021/09/01 05:38:38;;;;;;;;;;;13.80;99.90;;;;;;5115889;28;19930;-83
2021/09/01 05:41:06;;;;;;;;;;;13.80;99.90;;;;;;5115840;28;19931;-83
2021/09/01 05:43:33;;;;;;;;;;;13.80;99.90;;;;;;5115869;28;19924;-83
2021/09/01 05:46:00;;;;;;;;;;;13.80;99.90;;;;;;5115646;28;20271;-83
2021/09/01 05:48:27;;;;;;;;;;;13.80;99.90;;;;;;5116073;28;19951;-82
2021/09/01 05:50:54;;;;;;;;;;;13.80;99.90;;;;;;5115760;28;19934;-83
2021/09/01 05:53:21;;;;;;;;;;;13.80;99.90;;;;;;5115755;28;20030;-82
2021/09/01 05:55:49;;;;;;;;;;;13.80;99.90;;;;;;5115712;28;19934;-83
2021/09/01 05:58:19;;;;;;;;;;;13.80;99.90;;;;;;5115553;28;19930;-83
2021/09/01 06:00:47;;;;;;;;;;;13.90;99.90;;;;;;5115515;28;20364;-82
2021/09/01 06:03:14;;;;;;;;;;;13.90;99.90;;;;;;5115549;28;20369;-82
2021/09/01 06:05:41;;;;;;;;;;;13.90;99.90;;;;;;5115462;28;19989;-83
2021/09/01 06:08:08;;;;;;;;;;;13.90;99.90;;;;;;5115606;28;19924;-82
2021/09/01 06:10:37;;;;;;;;;;;13.90;99.90;;;;;;5115460;28;20271;-82
2021/09/01 06:13:04;;;;;;;;;;;13.90;99.90;;;;;;5115412;28;20306;-82
2021/09/01 06:15:32;;;;;;;;;;;13.90;99.90;;;;;;5115363;28;20351;-82
2021/09/01 06:18:00;;;;;;;;;;;13.90;99.90;;;;;;5115522;28;19939;-82
2021/09/01 06:20:27;;;;;;;;;;;13.90;99.90;;;;;;5115562;28;19931;-83
2021/09/01 06:22:54;;;;;;;;;;;13.90;99.90;;;;;;5115624;28;19924;-82
2021/09/01 06:25:20;;;;;;;;;;;13.90;99.90;;;;;;5115502;28;19988;-82
2021/09/01 06:27:47;;;;;;;;;;;13.90;99.90;;;;;;5115329;28;19931;-82
2021/09/01 06:30:14;;;;;;;;;;;14.00;99.90;;;;;;5115093;28;20008;-83
2021/09/01 06:32:43;;;;;;;;;;;14.00;99.90;;;;;;5117080;28;19923;-83
2021/09/01 06:35:10;;;;;;;;;;;14.00;99.90;;;;;;5119515;28;19923;-83
2021/09/01 06:37:37;;;;;;;;;;;14.00;99.90;;;;;;5119283;28;19932;-83
2021/09/01 06:40:04;;;;;;;;;;;14.00;99.90;;;;;;5119340;28;19923;-82
2021/09/01 06:42:31;;;;;;;;;;;14.00;99.90;;;;;;5119201;28;20283;-83
2021/09/01 06:44:58;;;;;;;;;;;14.00;99.90;;;;;;5119203;28;19934;-83
2021/09/01 06:47:25;;;;;;;;;;;14.00;99.90;;;;;;5119285;28;19924;-82
2021/09/01 06:49:53;;;;;;;;;;;14.00;99.90;;;;;;5119096;28;19934;-83
2021/09/01 06:52:20;;;;;;;;;;;14.00;99.90;;;;;;5119085;28;20385;-82
2021/09/01 06:54:47;;;;;;;;;;;14.00;99.90;;;;;;5119016;28;19924;-83
2021/09/01 06:57:13;;;;;;;;;;;14.00;99.90;;;;;;5118876;28;19934;-82
2021/09/01 06:59:40;;;;;;;;;;;14.10;99.90;;;;;;5118830;28;19924;-82
2021/09/01 07:02:07;;;;;;;;;;;14.10;99.90;;;;;;5119016;28;19923;-83
2021/09/01 07:04:34;;;;;;;;;;;14.10;99.90;;;;;;5118865;28;20377;-83
2021/09/01 07:07:02;;;;;;;;;;;14.10;99.90;;;;;;5119018;28;19934;-83
2021/09/01 07:09:29;;;;;;;;;;;14.10;99.90;;;;;;5118720;28;19934;-82
2021/09/01 07:11:56;;;;;;;;;;;14.10;99.90;;;;;;5118667;28;20031;-82
2021/09/01 07:14:23;;;;;;;;;;;14.10;99.90;;;;;;5118858;28;19928;-83
2021/09/01 07:16:49;;;;;;;;;;;14.20;99.90;;;;;;5118827;28;19931;-83
2021/09/01 07:19:16;;;;;;;;;;;14.20;99.90;;;;;;5118431;28;20343;-83
2021/09/01 07:21:43;;;;;;;;;;;14.20;99.90;;;;;;5118418;28;19934;-83
2021/09/01 07:24:11;;;;;;;;;;;14.20;99.90;;;;;;5118443;28;19923;-82
2021/09/01 07:26:38;;;;;;;;;;;14.20;99.90;;;;;;5118368;28;20339;-82
2021/09/01 07:29:05;;;;;;;;;;;14.20;99.90;;;;;;5118369;28;19924;-82
2021/09/01 07:31:32;;;;;;;;;;;14.30;99.90;;;;;;5118499;28;19934;-83
2021/09/01 07:33:59;;;;;;;;;;;14.30;99.90;;;;;;5118181;28;20275;-83
2021/09/01 07:36:25;;;;;;;;;;;14.30;99.90;;;;;;5118305;28;19924;-83
2021/09/01 07:38:52;;;;;;;;;;;14.30;99.90;;;;;;5118056;28;19923;-83
2021/09/01 07:41:21;;;;;;;;;;;14.40;99.90;;;;;;5118366;28;19934;-82
2021/09/01 07:43:47;;;;;;;;;;;14.40;99.90;;;;;;5116644;28;19934;-83
2021/09/01 07:46:14;;;;;;;;;;;14.50;99.90;;;;;;5117970;28;19932;-82
2021/09/01 07:48:41;;;;;;;;;;;14.60;99.90;;;;;;5118095;28;19924;-83
2021/09/01 07:51:08;;;;;;;;;;;14.70;99.90;;;;;;5117902;28;19924;-82
2021/09/01 07:53:35;;;;;;;;;;;14.70;99.90;;;;;;5117787;28;19927;-83
2021/09/01 07:56:02;;;;;;;;;;;14.80;99.90;;;;;;5117983;28;19923;-83
2021/09/01 07:58:30;;;;;;;;;;;14.80;99.90;;;;;;5117931;28;19923;-83
2021/09/01 08:00:57;;;;;;;;;;;14.80;99.90;;;;;;5117744;28;19923;-82
2021/09/01 08:03:24;;;;;;;;;;;14.80;99.90;;;;;;5117712;28;19930;-82
2021/09/01 08:05:51;;;;;;;;;;;14.80;99.90;;;;;;5117592;28;19924;-82
2021/09/01 08:08:18;;;;;;;;;;;14.90;99.90;;;;;;5117597;28;19934;-82
2021/09/01 08:10:45;;;;;;;;;;;14.90;99.90;;;;;;5117724;28;20064;-82
2021/09/01 08:13:12;;;;;;;;;;;14.90;99.90;;;;;;5117557;28;19923;-82
2021/09/01 08:15:40;;;;;;;;;;;14.90;99.90;;;;;;5117574;28;19923;-82
2021/09/01 08:18:07;;;;;;;;;;;14.90;99.90;;;;;;5117415;28;20331;-82
2021/09/01 08:20:33;;;;;;;;;;;14.90;99.90;;;;;;5117287;28;19924;-82
2021/09/01 08:23:00;;;;;;;;;;;15.00;99.90;;;;;;5117290;28;19931;-82
2021/09/01 08:25:27;;;;;;;;;;;15.00;99.90;;;;;;5117228;28;19923;-82
2021/09/01 08:27:54;;;;;;;;;;;15.00;99.90;;;;;;5117346;28;19927;-82
2021/09/01 08:30:21;;;;;;;;;;;15.00;99.90;;;;;;5095792;28;19966;-82
2021/09/01 08:32:53;;;;;;;;;;;15.00;99.90;;;;;;5096672;28;19924;-82
2021/09/01 08:35:20;;;;;;;;;;;15.00;99.90;;;;;;5096681;28;20027;-83
2021/09/01 08:37:49;;;;;;;;;;;15.00;99.90;;;;;;5096657;28;19935;-82
2021/09/01 08:40:17;;;;;;;;;;;15.00;99.90;;;;;;5096765;28;19948;-83
2021/09/01 08:42:48;;;;;;;;;;;15.00;99.90;;;;;;5096618;28;19934;-82
2021/09/01 08:45:16;;;;;;;;;;;15.00;99.90;;;;;;5096554;28;19932;-82
2021/09/01 08:47:44;;;;;;;;;;;15.00;99.90;;;;;;5096545;28;19978;-83
2021/09/01 08:50:14;;;;;;;;;;;14.90;99.90;;;;;;5096447;28;20366;-83
2021/09/01 08:52:41;;;;;;;;;;;14.90;99.90;;;;;;5096649;28;19924;-83
2021/09/01 08:55:09;;;;;;;;;;;14.80;99.90;;;;;;5096052;28;19924;-82
2021/09/01 08:57:37;;;;;;;;;;;14.90;99.90;;;;;;5096429;28;19931;-83
2021/09/01 09:00:07;;;;;;;;;;;14.90;99.90;;;;;;5096103;28;19928;-83
2021/09/01 09:02:34;;;;;;;;;;;15.00;99.90;;;;;;5096095;28;19928;-82
2021/09/01 09:05:05;;;;;;;;;;;15.00;99.90;;;;;;5096316;28;19924;-83
2021/09/01 09:07:39;;;;;;;;;;;15.00;99.90;;;;;;5095847;28;19924;-82
2021/09/01 09:10:09;;;;;;;;;;;15.10;99.90;;;;;;5094860;28;19935;-82
2021/09/01 09:12:39;;;;;;;;;;;15.10;99.90;;;;;;5091179;28;20011;-82
2021/09/01 09:15:07;;;;;;;;;;;15.10;99.90;;;;;;5095243;28;19924;-82
2021/09/01 09:17:38;;;;;;;;;;;15.10;99.90;;;;;;5095675;28;19950;-82
2021/09/01 09:20:07;;;;;;;;;;;15.20;99.90;;;;;;5095917;28;19928;-82
2021/09/01 09:22:35;;;;;;;;;;;15.20;99.90;;;;;;5095785;28;20422;-82
2021/09/01 09:25:05;;;;;;;;;;;15.30;99.90;;;;;;5095330;28;19924;-82
2021/09/01 09:27:44;;;;;;;;;;;15.30;99.90;;;;;;5092483;28;19924;-82
2021/09/01 09:30:29;;;;;;;;;;;15.40;99.90;;;;;;5101250;28;20018;-82
2021/09/01 09:32:57;;;;;;;;;;;15.40;99.90;;;;;;5114248;28;19934;-82
2021/09/01 09:35:25;;;;;;;;;;;15.40;99.90;;;;;;5116272;28;19923;-82
2021/09/01 09:38:01;;;;;;;;;;;15.50;99.90;;;;;;5115191;28;21254;-82
2021/09/01 09:40:32;;;;;;;;;;;15.50;99.90;;;;;;5116051;28;19924;-82
2021/09/01 09:43:12;;;;;;;;;;;15.50;99.90;;;;;;5115923;28;20271;-82
2021/09/01 09:45:41;;;;;;;;;;;15.50;99.90;;;;;;5115879;28;20337;-82
2021/09/01 09:48:09;;;;;;;;;;;15.60;99.90;;;;;;5115785;28;20368;-82
2021/09/01 09:50:36;;;;;;;;;;;15.50;99.90;;;;;;5115605;28;19934;-82
2021/09/01 09:53:03;;;;;;;;;;;15.40;99.90;;;;;;5115664;28;19962;-82
2021/09/01 09:55:33;;;;;;;;;;;15.30;99.90;;;;;;5115606;28;20257;-82
2021/09/01 09:58:00;;;;;;;;;;;15.20;99.90;;;;;;5115776;28;19977;-83
2021/09/01 10:00:27;;;;;;;;;;;15.10;99.90;;;;;;5115473;28;19924;-82
2021/09/01 10:02:54;;;;;;;;;;;15.00;99.90;;;;;;5115691;28;19924;-82
2021/09/01 10:05:22;;;;;;;;;;;15.00;99.90;;;;;;5115252;28;19924;-83
2021/09/01 10:07:49;;;;;;;;;;;15.00;99.90;;;;;;5114763;28;19935;-82
2021/09/01 10:10:16;;;;;;;;;;;15.10;99.90;;;;;;5115690;28;19934;-82
2021/09/01 10:12:44;;;;;;;;;;;15.10;99.90;;;;;;5115592;28;19924;-83
2021/09/01 10:15:12;;;;;;;;;;;15.20;99.90;;;;;;5115519;28;19961;-82
2021/09/01 10:17:39;;;;;;;;;;;15.20;99.90;;;;;;5115304;28;19924;-83
2021/09/01 10:20:06;;;;;;;;;;;15.30;99.90;;;;;;5115361;28;19924;-82
2021/09/01 10:22:33;;;;;;;;;;;15.40;99.90;;;;;;5115420;28;19931;-82
2021/09/01 10:25:00;;;;;;;;;;;15.40;99.90;;;;;;5115355;28;19934;-82
2021/09/01 10:27:28;;;;;;;;;;;15.50;99.90;;;;;;5115754;28;19923;-82
2021/09/01 10:29:58;;;;;;;;;;;15.60;99.90;;;;;;5115126;28;19928;-81
2021/09/01 10:32:26;;;;;;;;;;;15.60;99.90;;;;;;5115270;28;20019;-82
2021/09/01 10:35:07;;;;;;;;;;;15.60;99.90;;;;;;5115383;28;19924;-82
2021/09/01 10:37:37;;;;;;;;;;;15.70;99.90;;;;;;5098361;28;20275;-82
2021/09/01 10:40:04;;;;;;;;;;;15.70;99.90;;;;;;5115100;28;20364;-82
2021/09/01 10:42:36;;;;;;;;;;;15.70;99.90;;;;;;5115210;28;19924;-82
2021/09/01 10:45:06;;;;;;;;;;;15.70;99.90;;;;;;5115211;28;19923;-82
2021/09/01 10:47:51;;;;;;;;;;;15.80;99.90;;;;;;5115440;28;19924;-82
2021/09/01 10:50:18;;;;;;;;;;;15.90;99.90;;;;;;5115144;28;19938;-82
2021/09/01 10:52:57;;;;;;;;;;;16.00;99.90;;;;;;5115188;28;20264;-82
2021/09/01 10:55:24;;;;;;;;;;;16.00;99.90;;;;;;5115083;28;19924;-82
2021/09/01 10:58:06;;;;;;;;;;;16.10;99.90;;;;;;5115150;28;19924;-82
2021/09/01 11:00:39;;;;;;;;;;;16.20;99.90;;;;;;5114142;28;19934;-81
2021/09/01 11:03:06;;;;;;;;;;;16.30;99.90;;;;;;5115048;28;19923;-82
2021/09/01 11:05:33;;;;;;;;;;;16.40;99.90;;;;;;5114988;28;20344;-81
2021/09/01 11:07:59;;;;;;;;;;;16.50;99.90;;;;;;5114914;28;19938;-81
2021/09/01 11:10:28;;;;;;;;;;;16.50;99.90;;;;;;5115265;28;19934;-81
2021/09/01 11:12:58;;;;;;;;;;;16.50;99.90;;;;;;5115191;28;19935;-81
2021/09/01 11:15:25;;;;;;;;;;;16.60;99.90;;;;;;5115120;28;19935;-81
2021/09/01 11:17:53;;;;;;;;;;;16.60;99.90;;;;;;5115405;28;20263;-81
2021/09/01 11:20:21;;;;;;;;;;;16.70;99.90;;;;;;5117012;28;19923;-82
2021/09/01 11:22:48;;;;;;;;;;;16.70;99.90;;;;;;5118409;28;19923;-82
2021/09/01 11:25:15;;;;;;;;;;;16.70;99.90;;;;;;5118411;28;19938;-81
2021/09/01 11:27:46;;;;;;;;;;;16.80;99.90;;;;;;5118551;28;20022;-82
2021/09/01 11:30:13;;;;;;;;;;;16.80;99.90;;;;;;5118220;28;19953;-82
2021/09/01 11:32:40;;;;;;;;;;;16.80;99.90;;;;;;5118373;28;19935;-81
2021/09/01 11:35:10;;;;;;;;;;;16.90;99.90;;;;;;5118262;28;19924;-81
2021/09/01 11:37:37;;;;;;;;;;;16.80;99.90;;;;;;5118538;28;19959;-81
2021/09/01 11:40:05;;;;;;;;;;;16.80;99.90;;;;;;5118094;28;19923;-82
2021/09/01 11:42:34;;;;;;;;;;;16.70;99.90;;;;;;5118086;28;19923;-81
2021/09/01 11:45:03;;;;;;;;;;;16.70;99.90;;;;;;5118093;28;19924;-81
2021/09/01 11:47:29;;;;;;;;;;;16.60;99.90;;;;;;5117977;28;20268;-81
2021/09/01 11:49:57;;;;;;;;;;;16.50;99.90;;;;;;5117964;28;19924;-81
2021/09/01 11:52:29;;;;;;;;;;;16.50;99.90;;;;;;5118012;28;19973;-82
2021/09/01 11:54:55;;;;;;;;;;;16.40;99.90;;;;;;5118102;28;19938;-82
2021/09/01 11:57:25;;;;;;;;;;;16.40;99.90;;;;;;5118108;28;19934;-81
2021/09/01 11:59:52;;;;;;;;;;;16.40;99.90;;;;;;5117836;28;19923;-82
2021/09/01 12:02:20;;;;;;;;;;;16.50;99.90;;;;;;5118244;28;19936;-82
2021/09/01 12:04:47;;;;;;;;;;;16.40;99.90;;;;;;5117690;28;20240;-82
2021/09/01 12:07:22;;;;;;;;;;;16.40;99.90;;;;;;5117909;28;19928;-82
2021/09/01 12:09:52;;;;;;;;;;;16.40;99.90;;;;;;5117865;28;20248;-82
2021/09/01 12:12:19;;;;;;;;;;;16.40;99.90;;;;;;5117627;28;19924;-82
2021/09/01 12:14:46;;;;;;;;;;;16.40;99.90;;;;;;5117535;28;20236;-82
2021/09/01 12:17:18;;;;;;;;;;;16.40;99.90;;;;;;5117451;28;19923;-82
2021/09/01 12:19:45;;;;;;;;;;;16.40;99.90;;;;;;5117430;28;19934;-82
2021/09/01 12:22:12;;;;;;;;;;;16.40;99.90;;;;;;5117358;28;19934;-82
2021/09/01 12:24:39;;;;;;;;;;;16.50;99.90;;;;;;5117384;28;19934;-82
2021/09/01 12:27:08;;;;;;;;;;;16.50;99.90;;;;;;5117377;28;19934;-82
2021/09/01 12:29:37;;;;;;;;;;;16.60;99.90;;;;;;5116395;28;19938;-81
2021/09/01 12:32:04;;;;;;;;;;;16.70;99.90;;;;;;5117407;28;19992;-82
2021/09/01 12:34:33;;;;;;;;;;;16.80;99.90;;;;;;5117284;28;19935;-82
2021/09/01 12:37:02;;;;;;;;;;;16.80;99.90;;;;;;5117072;28;19985;-82
2021/09/01 12:39:39;;;;;;;;;;;16.80;99.90;;;;;;5117308;28;19930;-82
2021/09/01 12:42:09;;;;;;;;;;;16.80;99.90;;;;;;5116989;28;19969;-81
2021/09/01 12:44:47;;;;;;;;;;;16.90;99.90;;;;;;5115679;28;19928;-81
2021/09/01 12:47:15;;;;;;;;;;;17.00;99.90;;;;;;5116961;28;20340;-81
2021/09/01 12:49:45;;;;;;;;;;;17.10;99.90;;;;;;5117060;28;19923;-81
2021/09/01 12:52:13;;;;;;;;;;;17.10;99.90;;;;;;5116881;28;19928;-81
2021/09/01 12:54:40;;;;;;;;;;;17.10;99.90;;;;;;5116759;28;19928;-82
2021/09/01 12:57:06;;;;;;;;;;;17.20;99.90;;;;;;5116925;28;19924;-82
2021/09/01 12:59:35;;;;;;;;;;;17.20;99.90;;;;;;5115744;28;20366;-81
2021/09/01 13:02:02;;;;;;;;;;;17.20;99.90;;;;;;5116667;28;20014;-81
2021/09/01 13:04:29;;;;;;;;;;;17.10;99.90;;;;;;5116517;28;19930;-82
2021/09/01 13:06:56;;;;;;;;;;;17.10;99.90;;;;;;5116466;28;19942;-82
2021/09/01 13:09:23;;;;;;;;;;;17.10;99.90;;;;;;5116506;28;19940;-81
2021/09/01 13:11:51;;;;;;;;;;;17.00;99.90;;;;;;5116241;28;19923;-81
2021/09/01 13:14:19;;;;;;;;;;;17.10;99.90;;;;;;5116649;28;19923;-81
2021/09/01 13:16:49;;;;;;;;;;;17.20;99.90;;;;;;5116263;28;19934;-81
2021/09/01 13:19:17;;;;;;;;;;;17.30;99.90;;;;;;5116315;28;19928;-81
2021/09/01 13:21:46;;;;;;;;;;;17.40;99.90;;;;;;5116146;28;19949;-81
2021/09/01 13:24:14;;;;;;;;;;;17.30;99.90;;;;;;5116268;28;19950;-81
2021/09/01 13:26:41;;;;;;;;;;;17.30;99.90;;;;;;5116270;28;19946;-81
2021/09/01 13:29:10;;;;;;;;;;;17.20;99.90;;;;;;5116197;28;19930;-81
2021/09/01 13:31:41;;;;;;;;;;;17.20;99.90;;;;;;5115904;28;19924;-81
2021/09/01 13:34:10;;;;;;;;;;;17.10;99.90;;;;;;5115946;28;19924;-81
2021/09/01 13:36:41;;;;;;;;;;;17.20;99.90;;;;;;5116046;28;19934;-81
2021/09/01 13:39:09;;;;;;;;;;;17.10;99.90;;;;;;5116084;28;19924;-81
2021/09/01 13:41:37;;;;;;;;;;;17.10;99.90;;;;;;5116075;28;19928;-81
2021/09/01 13:44:05;;;;;;;;;;;17.20;99.90;;;;;;5115901;28;19924;-81
2021/09/01 13:46:33;;;;;;;;;;;17.20;99.90;;;;;;5116221;28;20001;-81
2021/09/01 13:49:01;;;;;;;;;;;17.30;99.90;;;;;;5115712;28;19932;-81
2021/09/01 13:51:29;;;;;;;;;;;17.40;99.90;;;;;;5116112;28;20267;-81
2021/09/01 13:53:56;;;;;;;;;;;17.50;99.90;;;;;;5115988;28;19928;-80
2021/09/01 13:56:23;;;;;;;;;;;17.50;99.90;;;;;;5115489;28;19934;-80
2021/09/01 13:58:49;;;;;;;;;;;17.50;99.90;;;;;;5115868;28;19924;-80
2021/09/01 14:01:16;;;;;;;;;;;17.40;99.90;;;;;;5115555;28;19930;-81
2021/09/01 14:03:47;;;;;;;;;;;17.40;99.90;;;;;;5115559;28;20358;-81
2021/09/01 14:06:16;;;;;;;;;;;17.30;99.90;;;;;;5115554;28;20774;-81
2021/09/01 14:08:45;;;;;;;;;;;17.30;99.90;;;;;;5115099;28;19931;-80
2021/09/01 14:11:12;;;;;;;;;;;17.30;99.90;;;;;;5115223;28;19934;-81
2021/09/01 14:13:40;;;;;;;;;;;17.40;99.90;;;;;;5112549;28;19924;-80
2021/09/01 14:16:08;;;;;;;;;;;17.50;99.90;;;;;;5115004;28;19923;-81
2021/09/01 14:18:36;;;;;;;;;;;17.50;99.90;;;;;;5114884;28;20355;-81
2021/09/01 14:21:05;;;;;;;;;;;17.60;99.90;;;;;;5115032;28;20348;-81